sensor_id;sensor_type;location;lat;lon;timestamp;P1;durP1;ratioP1;P2;durP2;ratioP2
51148;SDS011;37210;50.058;8.688;2022-12-18T00:00:13;32.17;;;22.92;;
51148;SDS011;37210;50.058;8.688;2022-12-18T00:02:44;47.35;;;31.45;;
51148;SDS011;37210;50.058;8.688;2022-12-18T00:05:12;33.28;;;23.08;;
51148;SDS011;37210;50.058;8.688;2022-12-18T00:07:44;31.13;;;23.58;;
51148;SDS011;37210;50.058;8.688;2022-12-18T00:10:12;26.27;;;21.52;;
51148;SDS011;37210;50.058;8.688;2022-12-18T00:12:40;30.23;;;22.95;;
51148;SDS011;37210;50.058;8.688;2022-12-18T00:15:08;38.25;;;29.58;;
51148;SDS011;37210;50.058;8.688;2022-12-18T00:17:38;54.42;;;35.45;;
51148;SDS011;37210;50.058;8.688;2022-12-18T00:20:06;43.25;;;29.73;;
51148;SDS011;37210;50.058;8.688;2022-12-18T00:22:39;28.20;;;22.85;;
51148;SDS011;37210;50.058;8.688;2022-12-18T00:25:07;27.63;;;20.45;;
51148;SDS011;37210;50.058;8.688;2022-12-18T00:27:36;26.20;;;21.00;;
51148;SDS011;37210;50.058;8.688;2022-12-18T00:30:04;30.08;;;21.73;;
51148;SDS011;37210;50.058;8.688;2022-12-18T00:32:34;28.60;;;22.63;;
51148;SDS011;37210;50.058;8.688;2022-12-18T00:35:06;26.13;;;20.48;;
51148;SDS011;37210;50.058;8.688;2022-12-18T00:37:35;27.50;;;20.85;;
51148;SDS011;37210;50.058;8.688;2022-12-18T00:40:04;24.50;;;20.15;;
51148;SDS011;37210;50.058;8.688;2022-12-18T00:42:36;27.00;;;20.45;;
51148;SDS011;37210;50.058;8.688;2022-12-18T00:45:25;28.40;;;20.77;;
51148;SDS011;37210;50.058;8.688;2022-12-18T00:47:58;28.50;;;20.75;;
51148;SDS011;37210;50.058;8.688;2022-12-18T00:50:26;31.65;;;20.33;;
51148;SDS011;37210;50.058;8.688;2022-12-18T00:53:00;26.00;;;20.05;;
51148;SDS011;37210;50.058;8.688;2022-12-18T00:55:30;29.40;;;21.02;;
51148;SDS011;37210;50.058;8.688;2022-12-18T00:57:58;28.25;;;20.40;;
51148;SDS011;37210;50.058;8.688;2022-12-18T01:00:27;30.95;;;21.85;;
51148;SDS011;37210;50.058;8.688;2022-12-18T01:02:55;29.48;;;20.77;;
51148;SDS011;37210;50.058;8.688;2022-12-18T01:05:25;26.90;;;19.77;;
51148;SDS011;37210;50.058;8.688;2022-12-18T01:07:54;27.98;;;22.10;;
51148;SDS011;37210;50.058;8.688;2022-12-18T01:10:26;28.65;;;22.35;;
51148;SDS011;37210;50.058;8.688;2022-12-18T01:12:57;28.67;;;21.33;;
51148;SDS011;37210;50.058;8.688;2022-12-18T01:15:25;28.35;;;21.63;;
51148;SDS011;37210;50.058;8.688;2022-12-18T01:17:53;27.77;;;20.30;;
51148;SDS011;37210;50.058;8.688;2022-12-18T01:20:26;26.45;;;20.83;;
51148;SDS011;37210;50.058;8.688;2022-12-18T01:22:54;26.80;;;20.25;;
51148;SDS011;37210;50.058;8.688;2022-12-18T01:25:23;27.27;;;21.20;;
51148;SDS011;37210;50.058;8.688;2022-12-18T01:27:56;27.75;;;20.52;;
51148;SDS011;37210;50.058;8.688;2022-12-18T01:30:24;27.20;;;20.50;;
51148;SDS011;37210;50.058;8.688;2022-12-18T01:32:53;26.15;;;20.27;;
51148;SDS011;37210;50.058;8.688;2022-12-18T01:35:26;28.63;;;21.20;;
51148;SDS011;37210;50.058;8.688;2022-12-18T01:37:53;28.33;;;19.75;;
51148;SDS011;37210;50.058;8.688;2022-12-18T01:40:22;30.70;;;21.10;;
51148;SDS011;37210;50.058;8.688;2022-12-18T01:42:51;23.85;;;19.65;;
51148;SDS011;37210;50.058;8.688;2022-12-18T01:45:24;27.92;;;20.67;;
51148;SDS011;37210;50.058;8.688;2022-12-18T01:47:55;27.08;;;20.63;;
51148;SDS011;37210;50.058;8.688;2022-12-18T01:50:29;27.65;;;21.55;;
51148;SDS011;37210;50.058;8.688;2022-12-18T01:53:02;27.60;;;20.48;;
51148;SDS011;37210;50.058;8.688;2022-12-18T01:55:42;22.90;;;20.17;;
51148;SDS011;37210;50.058;8.688;2022-12-18T01:58:16;24.60;;;20.05;;
51148;SDS011;37210;50.058;8.688;2022-12-18T02:00:46;27.98;;;20.90;;
51148;SDS011;37210;50.058;8.688;2022-12-18T02:03:14;25.17;;;19.85;;
51148;SDS011;37210;50.058;8.688;2022-12-18T02:05:47;28.40;;;20.50;;
51148;SDS011;37210;50.058;8.688;2022-12-18T02:08:25;24.67;;;19.98;;
51148;SDS011;37210;50.058;8.688;2022-12-18T02:11:05;27.10;;;19.42;;
51148;SDS011;37210;50.058;8.688;2022-12-18T02:13:41;24.90;;;19.05;;
51148;SDS011;37210;50.058;8.688;2022-12-18T02:16:21;26.38;;;19.88;;
51148;SDS011;37210;50.058;8.688;2022-12-18T02:18:58;30.08;;;21.67;;
51148;SDS011;37210;50.058;8.688;2022-12-18T02:21:33;38.10;;;24.23;;
51148;SDS011;37210;50.058;8.688;2022-12-18T02:24:24;44.35;;;30.88;;
51148;SDS011;37210;50.058;8.688;2022-12-18T02:27:04;28.05;;;21.42;;
51148;SDS011;37210;50.058;8.688;2022-12-18T02:29:36;28.25;;;21.98;;
51148;SDS011;37210;50.058;8.688;2022-12-18T02:32:11;25.17;;;20.17;;
51148;SDS011;37210;50.058;8.688;2022-12-18T02:34:48;25.95;;;19.10;;
51148;SDS011;37210;50.058;8.688;2022-12-18T02:37:24;27.25;;;18.48;;
51148;SDS011;37210;50.058;8.688;2022-12-18T02:39:57;24.42;;;19.33;;
51148;SDS011;37210;50.058;8.688;2022-12-18T02:42:28;24.65;;;19.70;;
51148;SDS011;37210;50.058;8.688;2022-12-18T02:44:58;26.05;;;18.60;;
51148;SDS011;37210;50.058;8.688;2022-12-18T02:47:27;25.40;;;18.38;;
51148;SDS011;37210;50.058;8.688;2022-12-18T02:50:02;24.90;;;19.25;;
51148;SDS011;37210;50.058;8.688;2022-12-18T02:52:41;25.35;;;19.17;;
51148;SDS011;37210;50.058;8.688;2022-12-18T02:55:27;22.25;;;19.10;;
51148;SDS011;37210;50.058;8.688;2022-12-18T02:58:16;26.50;;;20.25;;
51148;SDS011;37210;50.058;8.688;2022-12-18T03:01:10;23.35;;;17.40;;
51148;SDS011;37210;50.058;8.688;2022-12-18T03:03:50;24.77;;;19.08;;
51148;SDS011;37210;50.058;8.688;2022-12-18T03:06:29;27.35;;;19.75;;
51148;SDS011;37210;50.058;8.688;2022-12-18T03:09:07;25.55;;;18.88;;
51148;SDS011;37210;50.058;8.688;2022-12-18T03:11:45;31.25;;;19.50;;
51148;SDS011;37210;50.058;8.688;2022-12-18T03:14:40;21.40;;;16.25;;
51148;SDS011;37210;50.058;8.688;2022-12-18T03:17:16;23.40;;;17.67;;
51148;SDS011;37210;50.058;8.688;2022-12-18T03:19:54;22.40;;;17.40;;
51148;SDS011;37210;50.058;8.688;2022-12-18T03:22:32;24.55;;;18.20;;
51148;SDS011;37210;50.058;8.688;2022-12-18T03:25:04;26.60;;;17.52;;
51148;SDS011;37210;50.058;8.688;2022-12-18T03:27:42;22.42;;;17.27;;
51148;SDS011;37210;50.058;8.688;2022-12-18T03:30:26;23.30;;;17.17;;
51148;SDS011;37210;50.058;8.688;2022-12-18T03:33:02;21.92;;;17.02;;
51148;SDS011;37210;50.058;8.688;2022-12-18T03:35:43;21.42;;;17.60;;
51148;SDS011;37210;50.058;8.688;2022-12-18T03:38:14;24.13;;;17.80;;
51148;SDS011;37210;50.058;8.688;2022-12-18T03:40:51;25.75;;;18.10;;
51148;SDS011;37210;50.058;8.688;2022-12-18T03:43:41;20.88;;;16.88;;
51148;SDS011;37210;50.058;8.688;2022-12-18T03:46:23;23.05;;;17.42;;
51148;SDS011;37210;50.058;8.688;2022-12-18T03:48:59;23.05;;;17.70;;
51148;SDS011;37210;50.058;8.688;2022-12-18T03:51:41;24.20;;;18.85;;
51148;SDS011;37210;50.058;8.688;2022-12-18T03:54:20;23.15;;;18.08;;
51148;SDS011;37210;50.058;8.688;2022-12-18T03:56:57;23.95;;;17.00;;
51148;SDS011;37210;50.058;8.688;2022-12-18T03:59:34;22.77;;;17.20;;
51148;SDS011;37210;50.058;8.688;2022-12-18T04:02:09;22.42;;;16.33;;
51148;SDS011;37210;50.058;8.688;2022-12-18T04:04:39;25.30;;;17.98;;
51148;SDS011;37210;50.058;8.688;2022-12-18T04:07:23;22.30;;;17.35;;
51148;SDS011;37210;50.058;8.688;2022-12-18T04:10:07;26.27;;;18.17;;
51148;SDS011;37210;50.058;8.688;2022-12-18T04:12:38;24.83;;;15.98;;
51148;SDS011;37210;50.058;8.688;2022-12-18T04:15:09;20.58;;;16.85;;
51148;SDS011;37210;50.058;8.688;2022-12-18T04:17:43;22.45;;;16.38;;
51148;SDS011;37210;50.058;8.688;2022-12-18T04:20:20;23.92;;;16.52;;
51148;SDS011;37210;50.058;8.688;2022-12-18T04:22:48;21.55;;;16.00;;
51148;SDS011;37210;50.058;8.688;2022-12-18T04:25:18;24.42;;;18.35;;
51148;SDS011;37210;50.058;8.688;2022-12-18T04:27:56;23.02;;;17.73;;
51148;SDS011;37210;50.058;8.688;2022-12-18T04:30:24;22.90;;;17.80;;
51148;SDS011;37210;50.058;8.688;2022-12-18T04:33:00;22.75;;;16.58;;
51148;SDS011;37210;50.058;8.688;2022-12-18T04:35:30;22.70;;;16.05;;
51148;SDS011;37210;50.058;8.688;2022-12-18T04:37:59;24.40;;;16.30;;
51148;SDS011;37210;50.058;8.688;2022-12-18T04:40:27;23.90;;;17.08;;
51148;SDS011;37210;50.058;8.688;2022-12-18T04:43:05;21.58;;;16.63;;
51148;SDS011;37210;50.058;8.688;2022-12-18T04:45:33;24.48;;;16.77;;
51148;SDS011;37210;50.058;8.688;2022-12-18T04:48:06;21.58;;;16.90;;
51148;SDS011;37210;50.058;8.688;2022-12-18T04:50:34;21.13;;;17.58;;
51148;SDS011;37210;50.058;8.688;2022-12-18T04:53:03;21.92;;;16.50;;
51148;SDS011;37210;50.058;8.688;2022-12-18T04:55:31;21.55;;;16.48;;
51148;SDS011;37210;50.058;8.688;2022-12-18T04:58:03;21.45;;;16.35;;
51148;SDS011;37210;50.058;8.688;2022-12-18T05:00:31;23.00;;;17.70;;
51148;SDS011;37210;50.058;8.688;2022-12-18T05:03:00;22.17;;;16.55;;
51148;SDS011;37210;50.058;8.688;2022-12-18T05:05:30;25.10;;;16.38;;
51148;SDS011;37210;50.058;8.688;2022-12-18T05:08:01;21.88;;;16.92;;
51148;SDS011;37210;50.058;8.688;2022-12-18T05:10:32;20.85;;;16.75;;
51148;SDS011;37210;50.058;8.688;2022-12-18T05:13:00;23.77;;;16.75;;
51148;SDS011;37210;50.058;8.688;2022-12-18T05:15:28;19.00;;;15.40;;
51148;SDS011;37210;50.058;8.688;2022-12-18T05:17:58;23.42;;;17.25;;
51148;SDS011;37210;50.058;8.688;2022-12-18T05:20:28;20.42;;;16.02;;
51148;SDS011;37210;50.058;8.688;2022-12-18T05:22:58;22.13;;;16.60;;
51148;SDS011;37210;50.058;8.688;2022-12-18T05:25:26;18.75;;;15.32;;
51148;SDS011;37210;50.058;8.688;2022-12-18T05:27:54;23.02;;;16.13;;
51148;SDS011;37210;50.058;8.688;2022-12-18T05:30:25;21.58;;;16.10;;
51148;SDS011;37210;50.058;8.688;2022-12-18T05:32:53;22.05;;;16.27;;
51148;SDS011;37210;50.058;8.688;2022-12-18T05:35:22;21.52;;;16.50;;
51148;SDS011;37210;50.058;8.688;2022-12-18T05:37:50;20.83;;;16.35;;
51148;SDS011;37210;50.058;8.688;2022-12-18T05:40:19;21.10;;;15.75;;
51148;SDS011;37210;50.058;8.688;2022-12-18T05:42:48;19.25;;;15.40;;
51148;SDS011;37210;50.058;8.688;2022-12-18T05:45:22;20.42;;;15.70;;
51148;SDS011;37210;50.058;8.688;2022-12-18T05:47:52;22.83;;;16.85;;
51148;SDS011;37210;50.058;8.688;2022-12-18T05:50:21;22.25;;;15.75;;
51148;SDS011;37210;50.058;8.688;2022-12-18T05:52:50;23.17;;;16.70;;
51148;SDS011;37210;50.058;8.688;2022-12-18T05:55:23;22.83;;;15.80;;
51148;SDS011;37210;50.058;8.688;2022-12-18T05:57:56;20.73;;;16.20;;
51148;SDS011;37210;50.058;8.688;2022-12-18T06:00:31;21.00;;;15.43;;
51148;SDS011;37210;50.058;8.688;2022-12-18T06:03:06;20.92;;;15.70;;
51148;SDS011;37210;50.058;8.688;2022-12-18T06:05:42;22.67;;;16.30;;
51148;SDS011;37210;50.058;8.688;2022-12-18T06:08:12;20.77;;;16.00;;
51148;SDS011;37210;50.058;8.688;2022-12-18T06:10:48;21.88;;;16.40;;
51148;SDS011;37210;50.058;8.688;2022-12-18T06:13:19;23.02;;;16.95;;
51148;SDS011;37210;50.058;8.688;2022-12-18T06:15:48;22.63;;;17.83;;
51148;SDS011;37210;50.058;8.688;2022-12-18T06:18:16;18.85;;;15.52;;
51148;SDS011;37210;50.058;8.688;2022-12-18T06:20:45;23.10;;;17.38;;
51148;SDS011;37210;50.058;8.688;2022-12-18T06:23:21;23.33;;;16.95;;
51148;SDS011;37210;50.058;8.688;2022-12-18T06:25:51;19.27;;;16.25;;
51148;SDS011;37210;50.058;8.688;2022-12-18T06:28:21;17.92;;;14.88;;
51148;SDS011;37210;50.058;8.688;2022-12-18T06:30:50;19.35;;;15.77;;
51148;SDS011;37210;50.058;8.688;2022-12-18T06:33:19;26.08;;;17.17;;
51148;SDS011;37210;50.058;8.688;2022-12-18T06:35:47;21.17;;;16.33;;
51148;SDS011;37210;50.058;8.688;2022-12-18T06:38:18;22.90;;;16.15;;
51148;SDS011;37210;50.058;8.688;2022-12-18T06:40:46;19.73;;;15.20;;
51148;SDS011;37210;50.058;8.688;2022-12-18T06:43:19;18.98;;;15.90;;
51148;SDS011;37210;50.058;8.688;2022-12-18T06:45:50;22.65;;;16.10;;
51148;SDS011;37210;50.058;8.688;2022-12-18T06:48:19;22.92;;;16.83;;
51148;SDS011;37210;50.058;8.688;2022-12-18T06:50:54;20.38;;;15.73;;
51148;SDS011;37210;50.058;8.688;2022-12-18T06:53:22;22.77;;;16.63;;
51148;SDS011;37210;50.058;8.688;2022-12-18T06:55:51;20.15;;;15.57;;
51148;SDS011;37210;50.058;8.688;2022-12-18T06:58:25;18.23;;;16.25;;
51148;SDS011;37210;50.058;8.688;2022-12-18T07:01:01;21.25;;;15.38;;
51148;SDS011;37210;50.058;8.688;2022-12-18T07:03:31;22.25;;;17.10;;
51148;SDS011;37210;50.058;8.688;2022-12-18T07:05:59;23.20;;;15.95;;
51148;SDS011;37210;50.058;8.688;2022-12-18T07:08:30;20.63;;;16.05;;
51148;SDS011;37210;50.058;8.688;2022-12-18T07:11:02;21.52;;;15.40;;
51148;SDS011;37210;50.058;8.688;2022-12-18T07:13:36;23.60;;;16.73;;
51148;SDS011;37210;50.058;8.688;2022-12-18T07:16:10;21.00;;;16.30;;
51148;SDS011;37210;50.058;8.688;2022-12-18T07:18:41;22.25;;;17.70;;
51148;SDS011;37210;50.058;8.688;2022-12-18T07:21:13;20.15;;;16.63;;
51148;SDS011;37210;50.058;8.688;2022-12-18T07:23:44;19.50;;;15.05;;
51148;SDS011;37210;50.058;8.688;2022-12-18T07:26:14;19.42;;;16.35;;
51148;SDS011;37210;50.058;8.688;2022-12-18T07:28:46;21.00;;;15.98;;
51148;SDS011;37210;50.058;8.688;2022-12-18T07:31:23;19.42;;;15.18;;
51148;SDS011;37210;50.058;8.688;2022-12-18T07:33:57;21.25;;;15.68;;
51148;SDS011;37210;50.058;8.688;2022-12-18T07:36:25;18.80;;;15.70;;
51148;SDS011;37210;50.058;8.688;2022-12-18T07:39:00;21.02;;;17.30;;
51148;SDS011;37210;50.058;8.688;2022-12-18T07:41:31;25.83;;;16.65;;
51148;SDS011;37210;50.058;8.688;2022-12-18T07:44:10;25.10;;;17.38;;
51148;SDS011;37210;50.058;8.688;2022-12-18T07:46:44;21.50;;;16.65;;
51148;SDS011;37210;50.058;8.688;2022-12-18T07:49:13;21.33;;;16.83;;
51148;SDS011;37210;50.058;8.688;2022-12-18T07:51:41;25.75;;;18.17;;
51148;SDS011;37210;50.058;8.688;2022-12-18T07:54:08;21.60;;;16.75;;
51148;SDS011;37210;50.058;8.688;2022-12-18T07:56:36;22.83;;;16.75;;
51148;SDS011;37210;50.058;8.688;2022-12-18T07:59:04;31.98;;;22.20;;
51148;SDS011;37210;50.058;8.688;2022-12-18T08:01:34;59.15;;;39.15;;
51148;SDS011;37210;50.058;8.688;2022-12-18T08:04:02;40.70;;;29.83;;
51148;SDS011;37210;50.058;8.688;2022-12-18T08:06:30;60.63;;;39.35;;
51148;SDS011;37210;50.058;8.688;2022-12-18T08:08:58;57.88;;;36.65;;
51148;SDS011;37210;50.058;8.688;2022-12-18T08:11:26;27.35;;;19.67;;
51148;SDS011;37210;50.058;8.688;2022-12-18T08:13:59;65.35;;;38.92;;
51148;SDS011;37210;50.058;8.688;2022-12-18T08:16:27;57.65;;;40.75;;
51148;SDS011;37210;50.058;8.688;2022-12-18T08:18:56;37.83;;;28.33;;
51148;SDS011;37210;50.058;8.688;2022-12-18T08:21:25;22.92;;;18.58;;
51148;SDS011;37210;50.058;8.688;2022-12-18T08:23:55;26.45;;;20.60;;
51148;SDS011;37210;50.058;8.688;2022-12-18T08:26:26;26.02;;;18.90;;
51148;SDS011;37210;50.058;8.688;2022-12-18T08:28:58;25.00;;;19.05;;
51148;SDS011;37210;50.058;8.688;2022-12-18T08:31:27;24.98;;;20.45;;
51148;SDS011;37210;50.058;8.688;2022-12-18T08:34:00;26.42;;;19.83;;
51148;SDS011;37210;50.058;8.688;2022-12-18T08:36:31;22.55;;;20.15;;
51148;SDS011;37210;50.058;8.688;2022-12-18T08:38:59;24.40;;;20.95;;
51148;SDS011;37210;50.058;8.688;2022-12-18T08:41:26;25.23;;;20.95;;
51148;SDS011;37210;50.058;8.688;2022-12-18T08:43:54;26.75;;;23.10;;
51148;SDS011;37210;50.058;8.688;2022-12-18T08:46:41;26.90;;;21.50;;
51148;SDS011;37210;50.058;8.688;2022-12-18T08:49:15;26.33;;;23.05;;
51148;SDS011;37210;50.058;8.688;2022-12-18T08:51:43;26.98;;;21.48;;
51148;SDS011;37210;50.058;8.688;2022-12-18T08:54:12;27.63;;;23.02;;
51148;SDS011;37210;50.058;8.688;2022-12-18T08:56:40;26.92;;;22.70;;
51148;SDS011;37210;50.058;8.688;2022-12-18T08:59:08;28.27;;;24.27;;
51148;SDS011;37210;50.058;8.688;2022-12-18T09:01:36;29.80;;;22.38;;
51148;SDS011;37210;50.058;8.688;2022-12-18T09:04:04;26.13;;;23.38;;
51148;SDS011;37210;50.058;8.688;2022-12-18T09:06:36;29.85;;;23.73;;
51148;SDS011;37210;50.058;8.688;2022-12-18T09:09:04;28.52;;;22.52;;
51148;SDS011;37210;50.058;8.688;2022-12-18T09:11:33;32.63;;;24.77;;
51148;SDS011;37210;50.058;8.688;2022-12-18T09:14:01;29.13;;;25.08;;
51148;SDS011;37210;50.058;8.688;2022-12-18T09:16:30;27.05;;;24.08;;
51148;SDS011;37210;50.058;8.688;2022-12-18T09:19:01;32.70;;;27.15;;
51148;SDS011;37210;50.058;8.688;2022-12-18T09:21:32;38.67;;;29.70;;
51148;SDS011;37210;50.058;8.688;2022-12-18T09:24:04;38.97;;;30.73;;
51148;SDS011;37210;50.058;8.688;2022-12-18T09:26:33;32.67;;;26.80;;
51148;SDS011;37210;50.058;8.688;2022-12-18T09:29:01;33.20;;;26.98;;
51148;SDS011;37210;50.058;8.688;2022-12-18T09:31:30;30.02;;;26.77;;
51148;SDS011;37210;50.058;8.688;2022-12-18T09:33:57;31.98;;;26.08;;
51148;SDS011;37210;50.058;8.688;2022-12-18T09:36:25;34.55;;;27.25;;
51148;SDS011;37210;50.058;8.688;2022-12-18T09:38:55;35.90;;;27.25;;
51148;SDS011;37210;50.058;8.688;2022-12-18T09:41:29;33.50;;;28.23;;
51148;SDS011;37210;50.058;8.688;2022-12-18T09:44:13;34.10;;;27.70;;
51148;SDS011;37210;50.058;8.688;2022-12-18T09:46:52;32.92;;;25.63;;
51148;SDS011;37210;50.058;8.688;2022-12-18T09:49:30;32.72;;;26.90;;
51148;SDS011;37210;50.058;8.688;2022-12-18T09:52:07;31.55;;;27.27;;
51148;SDS011;37210;50.058;8.688;2022-12-18T09:54:45;34.92;;;27.85;;
51148;SDS011;37210;50.058;8.688;2022-12-18T09:57:22;32.53;;;26.45;;
51148;SDS011;37210;50.058;8.688;2022-12-18T09:59:53;35.47;;;28.90;;
51148;SDS011;37210;50.058;8.688;2022-12-18T10:02:26;31.45;;;28.00;;
51148;SDS011;37210;50.058;8.688;2022-12-18T10:05:04;31.40;;;28.10;;
51148;SDS011;37210;50.058;8.688;2022-12-18T10:07:39;30.77;;;25.85;;
51148;SDS011;37210;50.058;8.688;2022-12-18T10:10:21;35.90;;;29.42;;
51148;SDS011;37210;50.058;8.688;2022-12-18T10:13:07;38.30;;;29.85;;
51148;SDS011;37210;50.058;8.688;2022-12-18T10:15:51;34.47;;;28.38;;
51148;SDS011;37210;50.058;8.688;2022-12-18T10:18:35;39.95;;;30.52;;
51148;SDS011;37210;50.058;8.688;2022-12-18T10:21:23;37.08;;;28.83;;
51148;SDS011;37210;50.058;8.688;2022-12-18T10:24:01;40.55;;;28.58;;
51148;SDS011;37210;50.058;8.688;2022-12-18T10:26:47;39.70;;;29.33;;
51148;SDS011;37210;50.058;8.688;2022-12-18T10:29:15;40.17;;;30.08;;
51148;SDS011;37210;50.058;8.688;2022-12-18T10:31:44;37.38;;;29.95;;
51148;SDS011;37210;50.058;8.688;2022-12-18T10:34:15;36.97;;;28.33;;
51148;SDS011;37210;50.058;8.688;2022-12-18T10:36:43;37.45;;;29.30;;
51148;SDS011;37210;50.058;8.688;2022-12-18T10:39:15;39.25;;;30.30;;
51148;SDS011;37210;50.058;8.688;2022-12-18T10:41:47;43.45;;;28.92;;
51148;SDS011;37210;50.058;8.688;2022-12-18T10:44:18;38.78;;;28.58;;
51148;SDS011;37210;50.058;8.688;2022-12-18T10:46:48;41.33;;;30.65;;
51148;SDS011;37210;50.058;8.688;2022-12-18T10:49:22;35.00;;;27.35;;
51148;SDS011;37210;50.058;8.688;2022-12-18T10:52:04;45.80;;;31.83;;
51148;SDS011;37210;50.058;8.688;2022-12-18T10:54:39;36.55;;;20.65;;
51148;SDS011;37210;50.058;8.688;2022-12-18T10:57:16;40.70;;;28.77;;
51148;SDS011;37210;50.058;8.688;2022-12-18T10:59:58;41.22;;;30.30;;
51148;SDS011;37210;50.058;8.688;2022-12-18T11:02:47;38.67;;;29.50;;
51148;SDS011;37210;50.058;8.688;2022-12-18T11:05:25;37.67;;;30.25;;
51148;SDS011;37210;50.058;8.688;2022-12-18T11:07:56;39.15;;;29.05;;
51148;SDS011;37210;50.058;8.688;2022-12-18T11:10:28;41.05;;;28.98;;
51148;SDS011;37210;50.058;8.688;2022-12-18T11:13:16;39.88;;;30.10;;
51148;SDS011;37210;50.058;8.688;2022-12-18T11:15:49;37.83;;;29.50;;
51148;SDS011;37210;50.058;8.688;2022-12-18T11:18:19;41.58;;;29.80;;
51148;SDS011;37210;50.058;8.688;2022-12-18T11:20:55;36.67;;;30.10;;
51148;SDS011;37210;50.058;8.688;2022-12-18T11:23:26;42.90;;;29.05;;
51148;SDS011;37210;50.058;8.688;2022-12-18T11:25:55;37.83;;;29.30;;
51148;SDS011;37210;50.058;8.688;2022-12-18T11:28:35;37.20;;;26.77;;
51148;SDS011;37210;50.058;8.688;2022-12-18T11:33:56;40.83;;;29.70;;
51148;SDS011;37210;50.058;8.688;2022-12-18T11:39:07;36.60;;;27.70;;
51148;SDS011;37210;50.058;8.688;2022-12-18T11:41:45;39.92;;;29.30;;
51148;SDS011;37210;50.058;8.688;2022-12-18T11:44:41;40.63;;;28.52;;
51148;SDS011;37210;50.058;8.688;2022-12-18T11:47:19;39.28;;;27.67;;
51148;SDS011;37210;50.058;8.688;2022-12-18T11:50:10;39.35;;;27.75;;
51148;SDS011;37210;50.058;8.688;2022-12-18T11:52:44;34.97;;;27.05;;
51148;SDS011;37210;50.058;8.688;2022-12-18T11:55:14;37.53;;;30.20;;
51148;SDS011;37210;50.058;8.688;2022-12-18T11:57:49;43.28;;;28.65;;
51148;SDS011;37210;50.058;8.688;2022-12-18T12:00:29;39.92;;;29.23;;
51148;SDS011;37210;50.058;8.688;2022-12-18T12:03:06;39.70;;;28.67;;
51148;SDS011;37210;50.058;8.688;2022-12-18T12:05:58;37.83;;;26.98;;
51148;SDS011;37210;50.058;8.688;2022-12-18T12:08:44;37.40;;;28.13;;
51148;SDS011;37210;50.058;8.688;2022-12-18T12:11:30;41.03;;;28.38;;
51148;SDS011;37210;50.058;8.688;2022-12-18T12:16:58;38.17;;;27.90;;
51148;SDS011;37210;50.058;8.688;2022-12-18T12:19:44;39.92;;;27.80;;
51148;SDS011;37210;50.058;8.688;2022-12-18T12:22:28;37.80;;;29.48;;
51148;SDS011;37210;50.058;8.688;2022-12-18T12:28:09;39.35;;;27.95;;
51148;SDS011;37210;50.058;8.688;2022-12-18T12:30:54;41.67;;;29.52;;
51148;SDS011;37210;50.058;8.688;2022-12-18T12:33:40;41.53;;;29.15;;
51148;SDS011;37210;50.058;8.688;2022-12-18T12:36:20;38.95;;;27.60;;
51148;SDS011;37210;50.058;8.688;2022-12-18T12:39:00;41.47;;;30.83;;
51148;SDS011;37210;50.058;8.688;2022-12-18T12:41:33;40.83;;;29.65;;
51148;SDS011;37210;50.058;8.688;2022-12-18T12:44:23;39.05;;;28.83;;
51148;SDS011;37210;50.058;8.688;2022-12-18T12:46:58;40.78;;;28.77;;
51148;SDS011;37210;50.058;8.688;2022-12-18T12:49:36;38.00;;;29.50;;
51148;SDS011;37210;50.058;8.688;2022-12-18T12:52:07;44.80;;;30.80;;
51148;SDS011;37210;50.058;8.688;2022-12-18T12:54:41;40.08;;;29.20;;
51148;SDS011;37210;50.058;8.688;2022-12-18T12:57:12;41.55;;;28.67;;
51148;SDS011;37210;50.058;8.688;2022-12-18T12:59:50;37.75;;;27.40;;
51148;SDS011;37210;50.058;8.688;2022-12-18T13:02:30;36.55;;;27.48;;
51148;SDS011;37210;50.058;8.688;2022-12-18T13:05:09;43.33;;;29.58;;
51148;SDS011;37210;50.058;8.688;2022-12-18T13:07:50;37.97;;;26.60;;
51148;SDS011;37210;50.058;8.688;2022-12-18T13:10:25;41.47;;;28.25;;
51148;SDS011;37210;50.058;8.688;2022-12-18T13:13:00;41.08;;;29.33;;
51148;SDS011;37210;50.058;8.688;2022-12-18T13:15:32;38.17;;;29.02;;
51148;SDS011;37210;50.058;8.688;2022-12-18T13:18:09;36.17;;;29.13;;
51148;SDS011;37210;50.058;8.688;2022-12-18T13:20:44;37.65;;;28.85;;
51148;SDS011;37210;50.058;8.688;2022-12-18T13:23:31;41.30;;;29.65;;
51148;SDS011;37210;50.058;8.688;2022-12-18T13:28:59;40.67;;;29.90;;
51148;SDS011;37210;50.058;8.688;2022-12-18T13:34:27;40.47;;;28.55;;
51148;SDS011;37210;50.058;8.688;2022-12-18T13:37:34;39.67;;;28.13;;
51148;SDS011;37210;50.058;8.688;2022-12-18T13:46:19;39.13;;;28.13;;
51148;SDS011;37210;50.058;8.688;2022-12-18T13:48:52;41.70;;;28.73;;
51148;SDS011;37210;50.058;8.688;2022-12-18T13:51:25;39.05;;;25.77;;
51148;SDS011;37210;50.058;8.688;2022-12-18T13:53:56;38.65;;;26.90;;
51148;SDS011;37210;50.058;8.688;2022-12-18T13:56:28;38.25;;;27.20;;
51148;SDS011;37210;50.058;8.688;2022-12-18T14:01:50;38.50;;;27.83;;
51148;SDS011;37210;50.058;8.688;2022-12-18T14:04:22;36.85;;;26.42;;
51148;SDS011;37210;50.058;8.688;2022-12-18T14:06:55;36.78;;;27.00;;
51148;SDS011;37210;50.058;8.688;2022-12-18T14:09:30;37.53;;;26.23;;
51148;SDS011;37210;50.058;8.688;2022-12-18T14:12:03;41.03;;;27.55;;
51148;SDS011;37210;50.058;8.688;2022-12-18T14:14:49;39.27;;;28.27;;
51148;SDS011;37210;50.058;8.688;2022-12-18T14:17:19;36.45;;;25.95;;
51148;SDS011;37210;50.058;8.688;2022-12-18T14:19:47;35.67;;;25.60;;
51148;SDS011;37210;50.058;8.688;2022-12-18T14:22:18;35.97;;;26.90;;
51148;SDS011;37210;50.058;8.688;2022-12-18T14:25:10;35.50;;;25.23;;
51148;SDS011;37210;50.058;8.688;2022-12-18T14:27:45;37.15;;;27.00;;
51148;SDS011;37210;50.058;8.688;2022-12-18T14:30:24;33.13;;;24.75;;
51148;SDS011;37210;50.058;8.688;2022-12-18T14:32:59;33.40;;;24.80;;
51148;SDS011;37210;50.058;8.688;2022-12-18T14:35:29;30.10;;;23.98;;
51148;SDS011;37210;50.058;8.688;2022-12-18T14:40:53;36.60;;;27.10;;
51148;SDS011;37210;50.058;8.688;2022-12-18T14:43:25;35.38;;;27.05;;
51148;SDS011;37210;50.058;8.688;2022-12-18T14:45:54;42.50;;;33.45;;
51148;SDS011;37210;50.058;8.688;2022-12-18T14:48:32;34.33;;;25.92;;
51148;SDS011;37210;50.058;8.688;2022-12-18T14:51:05;38.85;;;30.20;;
51148;SDS011;37210;50.058;8.688;2022-12-18T14:53:44;39.50;;;30.55;;
51148;SDS011;37210;50.058;8.688;2022-12-18T14:56:17;44.58;;;33.92;;
51148;SDS011;37210;50.058;8.688;2022-12-18T14:58:49;47.42;;;42.40;;
51148;SDS011;37210;50.058;8.688;2022-12-18T15:01:22;34.90;;;26.55;;
51148;SDS011;37210;50.058;8.688;2022-12-18T15:03:54;42.33;;;30.83;;
51148;SDS011;37210;50.058;8.688;2022-12-18T15:06:25;40.78;;;31.48;;
51148;SDS011;37210;50.058;8.688;2022-12-18T15:08:58;41.45;;;32.35;;
51148;SDS011;37210;50.058;8.688;2022-12-18T15:11:43;36.45;;;28.00;;
51148;SDS011;37210;50.058;8.688;2022-12-18T15:14:23;37.40;;;28.48;;
51148;SDS011;37210;50.058;8.688;2022-12-18T15:17:05;35.33;;;27.87;;
51148;SDS011;37210;50.058;8.688;2022-12-18T15:19:44;42.45;;;30.60;;
51148;SDS011;37210;50.058;8.688;2022-12-18T15:22:22;41.03;;;32.03;;
51148;SDS011;37210;50.058;8.688;2022-12-18T15:24:54;38.38;;;29.58;;
51148;SDS011;37210;50.058;8.688;2022-12-18T15:27:28;36.58;;;27.38;;